createdAt,value
2023-02-23T00:02:30.082Z,9.77
2023-02-23T00:05:37.623Z,9.88
2023-02-23T00:08:41.123Z,10.25
2023-02-23T00:11:44.219Z,9.93
2023-02-23T00:14:46.946Z,9.60
2023-02-23T00:17:51.941Z,9.30
2023-02-23T00:20:58.149Z,9.85
2023-02-23T00:24:08.393Z,9.45
2023-02-23T00:27:17.658Z,9.20
2023-02-23T00:30:20.910Z,9.90
2023-02-23T00:33:23.712Z,9.90
2023-02-23T00:36:33.571Z,9.32
2023-02-23T00:39:36.324Z,9.27
2023-02-23T00:42:40.075Z,8.48
2023-02-23T00:45:42.966Z,8.90
2023-02-23T00:48:46.254Z,9.05
2023-02-23T00:51:49.138Z,8.73
2023-02-23T00:54:52.264Z,9.35
2023-02-23T00:57:54.974Z,8.75
2023-02-23T01:01:01.468Z,8.60
2023-02-23T01:04:04.888Z,8.65
2023-02-23T01:07:07.869Z,7.82
2023-02-23T01:10:19.856Z,8.50
2023-02-23T01:13:25.016Z,7.50
2023-02-23T01:16:33.716Z,8.67
2023-02-23T01:19:36.910Z,7.95
2023-02-23T01:22:39.635Z,5.05
2023-02-23T01:25:44.145Z,7.87
2023-02-23T01:28:54.905Z,5.72
2023-02-23T01:31:59.446Z,7.03
2023-02-23T01:35:04.628Z,7.40
2023-02-23T01:38:07.776Z,6.15
2023-02-23T01:41:10.519Z,7.25
2023-02-23T01:44:13.477Z,8.43
2023-02-23T01:47:17.346Z,8.23
2023-02-23T01:50:20.864Z,8.15
2023-02-23T01:53:25.438Z,7.45
2023-02-23T01:56:34.785Z,8.02
2023-02-23T01:59:44.188Z,7.80
2023-02-23T02:02:49.001Z,7.70
2023-02-23T02:05:52.853Z,7.32
2023-02-23T02:09:06.406Z,7.87
2023-02-23T02:12:12.366Z,9.05
2023-02-23T02:15:22.670Z,8.27
2023-02-23T02:18:38.379Z,7.97
2023-02-23T02:22:00.827Z,7.05
2023-02-23T02:25:15.767Z,7.95
2023-02-23T02:28:38.632Z,6.80
2023-02-23T02:32:01.360Z,8.10
2023-02-23T02:35:24.708Z,7.53
2023-02-23T02:38:53.928Z,7.30
2023-02-23T02:42:22.026Z,7.97
2023-02-23T02:45:35.502Z,7.12
2023-02-23T02:49:20.152Z,6.90
2023-02-23T02:52:43.504Z,8.20
2023-02-23T02:55:48.453Z,7.28
2023-02-23T02:58:53.776Z,8.15
2023-02-23T03:02:16.432Z,7.07
2023-02-23T03:05:43.696Z,7.65
2023-02-23T03:09:14.414Z,7.27
2023-02-23T03:12:50.649Z,5.95
2023-02-23T03:16:41.508Z,8.23
2023-02-23T03:20:19.441Z,3.97
2023-02-23T03:24:05.006Z,7.82
2023-02-23T03:27:44.636Z,5.63
2023-02-23T03:31:06.210Z,5.97
2023-02-23T03:34:40.079Z,7.45
2023-02-23T03:38:33.425Z,7.50
2023-02-23T03:41:58.026Z,6.60
2023-02-23T03:45:26.582Z,7.47
2023-02-23T03:48:51.005Z,7.47
2023-02-23T03:52:24.623Z,7.10
2023-02-23T03:55:54.493Z,7.68
2023-02-23T03:59:20.060Z,7.90
2023-02-23T04:02:43.561Z,7.97
2023-02-23T04:06:09.222Z,7.35
2023-02-23T04:09:31.095Z,6.85
2023-02-23T04:13:11.894Z,7.75
2023-02-23T04:16:15.221Z,6.70
2023-02-23T04:19:18.888Z,5.00
2023-02-23T04:22:23.136Z,7.32
2023-02-23T04:25:27.009Z,8.05
2023-02-23T04:28:30.348Z,7.28
2023-02-23T04:31:33.444Z,6.37
2023-02-23T04:34:36.228Z,6.37
2023-02-23T04:37:39.904Z,4.82
2023-02-23T04:40:42.842Z,5.57
2023-02-23T04:43:45.877Z,6.93
2023-02-23T04:46:48.714Z,5.93
2023-02-23T04:49:51.868Z,6.13
2023-02-23T04:52:55.105Z,5.85
2023-02-23T04:55:59.094Z,5.20
2023-02-23T04:59:02.737Z,5.95
2023-02-23T05:02:06.554Z,5.12
2023-02-23T05:05:10.067Z,6.17
2023-02-23T05:08:13.060Z,4.93
2023-02-23T05:11:15.812Z,5.85
2023-02-23T05:14:19.089Z,4.87
2023-02-23T05:17:21.914Z,5.30
2023-02-23T05:20:25.002Z,5.27
2023-02-23T05:23:27.684Z,5.32
2023-02-23T05:26:30.884Z,4.70
2023-02-23T05:29:33.559Z,5.90
2023-02-23T05:32:36.956Z,4.45
2023-02-23T05:35:41.294Z,5.73
2023-02-23T05:38:46.133Z,5.00
2023-02-23T05:41:48.830Z,4.57
2023-02-23T05:44:52.110Z,4.10
2023-02-23T05:47:55.300Z,4.85
2023-02-23T05:51:08.692Z,5.63
2023-02-23T05:54:11.702Z,4.53
2023-02-23T05:57:14.717Z,5.15
2023-02-23T06:00:18.700Z,4.75
2023-02-23T06:03:22.840Z,4.03
2023-02-23T06:06:26.016Z,4.40
2023-02-23T06:09:29.170Z,4.57
2023-02-23T06:12:32.121Z,3.30
2023-02-23T06:15:35.423Z,3.97
2023-02-23T06:18:38.188Z,3.90
2023-02-23T06:21:41.316Z,2.30
2023-02-23T06:24:44.807Z,3.53
2023-02-23T06:27:48.141Z,2.60
2023-02-23T06:30:54.979Z,2.87
2023-02-23T06:33:58.580Z,4.95
2023-02-23T06:37:01.417Z,4.33
2023-02-23T06:40:05.764Z,5.45
2023-02-23T06:43:08.391Z,4.30
2023-02-23T06:46:11.702Z,3.62
2023-02-23T06:49:16.486Z,4.40
2023-02-23T06:52:20.255Z,2.97
2023-02-23T06:55:22.992Z,2.65
2023-02-23T06:58:26.669Z,4.07
2023-02-23T07:01:30.379Z,5.00
2023-02-23T07:04:34.051Z,3.53
2023-02-23T07:07:37.230Z,4.87
2023-02-23T07:10:40.305Z,3.50
2023-02-23T07:13:43.087Z,3.80
2023-02-23T07:16:46.323Z,3.90
2023-02-23T07:19:49.221Z,4.18
2023-02-23T07:22:52.368Z,2.60
2023-02-23T07:25:58.311Z,3.22
2023-02-23T07:29:02.370Z,4.43
2023-02-23T07:32:05.669Z,3.50
2023-02-23T07:35:09.207Z,5.53
2023-02-23T07:38:13.701Z,5.80
2023-02-23T07:41:16.981Z,4.65
2023-02-23T07:44:20.621Z,5.07
2023-02-23T07:47:31.033Z,5.20
2023-02-23T07:50:35.848Z,5.50
2023-02-23T07:53:40.332Z,5.03
2023-02-23T07:56:43.198Z,4.87
2023-02-23T07:59:46.903Z,9.73
2023-02-23T08:02:49.596Z,5.37
2023-02-23T08:05:52.717Z,4.57
2023-02-23T08:08:55.666Z,4.23
2023-02-23T08:11:58.889Z,4.47
2023-02-23T08:15:01.598Z,5.18
2023-02-23T08:18:05.426Z,5.90
2023-02-23T08:21:08.155Z,5.55
2023-02-23T08:24:11.244Z,5.73
2023-02-23T08:27:14.270Z,4.40
2023-02-23T08:30:18.122Z,4.18
2023-02-23T08:33:21.097Z,4.75
2023-02-23T08:36:24.223Z,5.00
2023-02-23T08:39:27.017Z,3.60
2023-02-23T08:42:30.561Z,4.10
2023-02-23T08:45:33.764Z,4.53
2023-02-23T08:48:36.851Z,5.43
2023-02-23T08:51:41.640Z,2.97
2023-02-23T08:54:44.674Z,6.40
2023-02-23T08:57:47.409Z,4.70
2023-02-23T09:00:50.726Z,5.07
2023-02-23T09:03:53.518Z,3.30
2023-02-23T09:06:56.609Z,3.50
2023-02-23T09:09:59.421Z,3.67
2023-02-23T09:13:03.168Z,3.40
2023-02-23T09:16:07.940Z,4.35
2023-02-23T09:19:11.300Z,4.20
2023-02-23T09:22:14.257Z,5.20
2023-02-23T09:25:19.472Z,6.40
2023-02-23T09:28:22.427Z,4.37
2023-02-23T09:31:25.635Z,5.07
2023-02-23T09:34:31.192Z,6.15
2023-02-23T09:37:34.292Z,3.03
2023-02-23T09:40:50.104Z,4.67
2023-02-23T09:44:19.862Z,5.72
2023-02-23T09:47:38.750Z,5.93
2023-02-23T09:50:46.907Z,5.15
2023-02-23T09:53:59.711Z,5.03
2023-02-23T09:57:11.859Z,5.20
2023-02-23T10:00:23.065Z,4.00
2023-02-23T10:03:40.088Z,4.35
2023-02-23T10:06:49.345Z,5.50
2023-02-23T10:10:10.836Z,5.32
2023-02-23T10:13:40.247Z,5.40
2023-02-23T10:17:15.121Z,5.57
2023-02-23T10:20:23.505Z,5.60
2023-02-23T10:23:31.823Z,4.72
2023-02-23T10:27:00.599Z,6.12
2023-02-23T10:30:05.065Z,6.00
2023-02-23T10:33:24.072Z,5.60
2023-02-23T10:36:30.310Z,5.78
2023-02-23T10:39:34.808Z,6.47
2023-02-23T10:42:37.940Z,5.40
2023-02-23T10:45:49.490Z,5.47
2023-02-23T10:48:57.226Z,4.55
2023-02-23T10:52:03.158Z,5.15
2023-02-23T10:55:08.004Z,5.85
2023-02-23T10:58:20.838Z,5.47
2023-02-23T11:02:00.335Z,6.00
2023-02-23T11:05:07.045Z,6.07
2023-02-23T11:08:32.071Z,5.40
2023-02-23T11:11:34.831Z,4.93
2023-02-23T11:14:38.391Z,4.72
2023-02-23T11:17:41.076Z,6.50
2023-02-23T11:20:44.583Z,4.05
2023-02-23T11:23:51.629Z,6.37
2023-02-23T11:27:03.938Z,5.47
2023-02-23T11:30:07.901Z,5.50
2023-02-23T11:33:17.838Z,5.90
2023-02-23T11:36:28.686Z,5.28
2023-02-23T11:39:32.442Z,5.30
2023-02-23T11:42:35.316Z,4.87
2023-02-23T11:45:50.484Z,5.32
2023-02-23T11:48:59.988Z,5.83
2023-02-23T11:52:03.794Z,4.70
2023-02-23T11:55:12.754Z,5.43
2023-02-23T11:58:44.643Z,3.92
2023-02-23T12:01:51.530Z,3.85
2023-02-23T12:05:25.751Z,3.57
2023-02-23T12:08:44.434Z,5.78
2023-02-23T12:11:57.588Z,5.82
2023-02-23T12:15:12.176Z,4.97
2023-02-23T12:18:43.227Z,5.87
2023-02-23T12:21:53.959Z,3.53
2023-02-23T12:25:02.555Z,2.83
2023-02-23T12:28:20.398Z,4.55
2023-02-23T12:32:06.637Z,4.75
2023-02-23T12:35:24.454Z,5.85
2023-02-23T12:38:48.939Z,3.13
2023-02-23T12:42:17.789Z,5.15
2023-02-23T12:45:37.499Z,3.45
2023-02-23T12:49:14.228Z,5.30
2023-02-23T12:52:26.527Z,5.30
2023-02-23T12:55:47.335Z,5.77
2023-02-23T12:59:13.608Z,4.30
2023-02-23T13:02:29.177Z,6.87
2023-02-23T13:05:38.211Z,5.72
2023-02-23T13:09:09.348Z,5.75
2023-02-23T13:12:30.004Z,3.50
2023-02-23T13:15:39.858Z,5.45
2023-02-23T13:19:07.128Z,5.35
2023-02-23T13:22:33.870Z,6.10
2023-02-23T13:25:40.259Z,5.82
2023-02-23T13:29:05.677Z,5.07
2023-02-23T13:32:13.419Z,5.20
2023-02-23T13:35:21.853Z,5.93
2023-02-23T13:38:53.382Z,6.68
2023-02-23T13:42:11.411Z,5.75
2023-02-23T13:45:27.471Z,5.97
2023-02-23T13:48:33.287Z,6.40
2023-02-23T13:51:47.467Z,5.90
2023-02-23T13:55:04.154Z,6.87
2023-02-23T13:58:33.730Z,5.80
2023-02-23T14:01:39.782Z,6.03
2023-02-23T14:04:43.627Z,5.20
2023-02-23T14:07:51.954Z,6.60
2023-02-23T14:10:57.536Z,5.53
2023-02-23T14:14:03.289Z,5.57
2023-02-23T14:17:40.274Z,6.50
2023-02-23T14:20:58.209Z,6.68
2023-02-23T14:24:27.063Z,6.68
2023-02-23T14:27:41.812Z,7.10
2023-02-23T14:30:51.387Z,5.95
2023-02-23T14:33:59.802Z,4.87
2023-02-23T14:37:18.676Z,6.65
2023-02-23T14:40:32.091Z,5.78
2023-02-23T14:43:44.035Z,4.68
2023-02-23T14:47:08.983Z,5.93
2023-02-23T14:50:18.225Z,6.17
2023-02-23T14:53:24.585Z,5.70
2023-02-23T14:56:42.221Z,7.07
2023-02-23T14:59:53.475Z,7.93
2023-02-23T15:03:12.716Z,8.20
2023-02-23T15:06:15.835Z,9.53
2023-02-23T15:09:25.253Z,7.82
2023-02-23T15:12:30.870Z,8.35
2023-02-23T15:15:34.109Z,7.20
2023-02-23T15:19:29.933Z,8.70
2023-02-23T15:22:39.087Z,8.97
2023-02-23T15:25:45.058Z,8.18
2023-02-23T15:28:48.221Z,8.48
2023-02-23T15:31:54.177Z,8.40
2023-02-23T15:34:57.411Z,8.30
2023-02-23T15:38:13.676Z,8.17
2023-02-23T15:41:37.274Z,8.73
2023-02-23T15:44:44.958Z,10.48
2023-02-23T15:47:52.805Z,7.55
2023-02-23T15:50:57.984Z,9.48
2023-02-23T15:54:08.235Z,5.03
2023-02-23T15:57:21.581Z,7.82
2023-02-23T16:00:39.687Z,5.93
2023-02-23T16:03:54.976Z,7.93
2023-02-23T16:07:15.588Z,8.10
2023-02-23T16:10:23.106Z,5.57
2023-02-23T16:13:27.585Z,7.20
2023-02-23T16:16:34.451Z,6.25
2023-02-23T16:19:41.771Z,6.50
2023-02-23T16:22:46.712Z,6.62
2023-02-23T16:25:54.383Z,9.37
2023-02-23T16:29:02.881Z,6.82
2023-02-23T16:32:16.915Z,6.97
2023-02-23T16:35:20.840Z,6.80
2023-02-23T16:38:53.104Z,6.35
2023-02-23T16:42:00.171Z,7.60
2023-02-23T16:45:03.384Z,7.65
2023-02-23T16:48:12.117Z,4.90
2023-02-23T16:51:16.656Z,8.70
2023-02-23T16:54:20.136Z,12.13
2023-02-23T16:57:29.328Z,6.67
2023-02-23T17:00:34.901Z,8.38
2023-02-23T17:03:47.387Z,7.37
2023-02-23T17:06:58.360Z,7.45
2023-02-23T17:10:02.954Z,6.70
2023-02-23T17:13:13.611Z,6.07
2023-02-23T17:16:17.140Z,7.87
2023-02-23T17:19:23.631Z,7.97
2023-02-23T17:22:29.426Z,9.82
2023-02-23T17:25:33.951Z,5.97
2023-02-23T17:28:38.798Z,4.60
2023-02-23T17:31:43.703Z,6.32
2023-02-23T17:34:50.505Z,14.95
2023-02-23T17:37:55.099Z,8.80
2023-02-23T17:40:58.367Z,13.48
2023-02-23T17:44:06.497Z,10.30
2023-02-23T17:47:10.864Z,8.52
2023-02-23T17:50:15.491Z,9.43
2023-02-23T17:53:20.710Z,9.15
2023-02-23T17:56:24.832Z,11.60
2023-02-23T17:59:31.770Z,8.63
2023-02-23T18:02:37.373Z,11.05
2023-02-23T18:05:43.990Z,11.48
2023-02-23T18:08:47.721Z,9.13
2023-02-23T18:11:51.819Z,12.52
2023-02-23T18:14:55.737Z,12.23
2023-02-23T18:18:02.312Z,15.25
2023-02-23T18:21:15.185Z,11.07
2023-02-23T18:24:19.178Z,10.65
2023-02-23T18:27:24.322Z,7.30
2023-02-23T18:30:28.553Z,7.60
2023-02-23T18:33:31.738Z,6.75
2023-02-23T18:36:37.214Z,7.15
2023-02-23T18:39:42.973Z,6.35
2023-02-23T18:42:46.986Z,6.97
2023-02-23T18:45:50.859Z,4.70
2023-02-23T18:48:56.105Z,6.37
2023-02-23T18:52:01.929Z,5.85
2023-02-23T18:55:08.591Z,6.70
2023-02-23T18:58:12.447Z,9.13
2023-02-23T19:01:22.840Z,7.23
2023-02-23T19:04:29.927Z,5.85
2023-02-23T19:07:35.755Z,6.95
2023-02-23T19:10:47.001Z,6.25
2023-02-23T19:13:57.397Z,7.20
2023-02-23T19:17:03.818Z,6.33
2023-02-23T19:20:13.679Z,6.00
2023-02-23T19:23:18.096Z,6.95
2023-02-23T19:26:23.355Z,5.05
2023-02-23T19:29:28.504Z,6.10
2023-02-23T19:32:33.944Z,5.80
2023-02-23T19:35:42.365Z,5.47
2023-02-23T19:38:47.199Z,4.57
2023-02-23T19:41:52.263Z,4.78
2023-02-23T19:44:57.047Z,6.47
2023-02-23T19:48:00.661Z,5.23
2023-02-23T19:51:05.749Z,6.62
2023-02-23T19:54:10.844Z,6.30
2023-02-23T19:57:15.797Z,7.70
2023-02-23T20:00:21.712Z,3.97
2023-02-23T20:03:29.817Z,7.83
2023-02-23T20:06:40.292Z,6.87
2023-02-23T20:09:45.282Z,11.52
2023-02-23T20:12:52.308Z,6.90
2023-02-23T20:16:07.882Z,6.80
2023-02-23T20:19:14.441Z,5.87
2023-02-23T20:22:18.909Z,5.65
2023-02-23T20:25:24.440Z,5.03
2023-02-23T20:28:29.023Z,6.87
2023-02-23T20:31:36.088Z,6.30
2023-02-23T20:34:40.289Z,6.43
2023-02-23T20:37:46.410Z,5.87
2023-02-23T20:40:52.366Z,4.68
2023-02-23T20:43:57.199Z,5.93
2023-02-23T20:47:01.849Z,6.05
2023-02-23T20:50:11.477Z,5.83
2023-02-23T20:53:20.606Z,4.35
2023-02-23T20:56:24.844Z,6.07
2023-02-23T20:59:32.820Z,4.03
2023-02-23T21:02:38.007Z,5.50
2023-02-23T21:05:42.505Z,5.57
2023-02-23T21:08:49.119Z,4.95
2023-02-23T21:11:53.205Z,4.30
2023-02-23T21:14:57.249Z,4.15
2023-02-23T21:18:01.079Z,4.53
2023-02-23T21:21:10.173Z,6.03
2023-02-23T21:24:15.868Z,4.95
2023-02-23T21:27:19.816Z,5.85
2023-02-23T21:30:25.088Z,5.53
2023-02-23T21:33:28.775Z,7.10
2023-02-23T21:36:35.968Z,6.60
2023-02-23T21:39:39.125Z,5.95
2023-02-23T21:42:44.142Z,5.07
2023-02-23T21:45:47.655Z,6.93
2023-02-23T21:48:50.932Z,6.70
2023-02-23T21:51:55.372Z,5.20
2023-02-23T21:55:05.699Z,5.30
2023-02-23T21:58:12.269Z,5.97
2023-02-23T22:01:26.764Z,5.43
2023-02-23T22:04:29.804Z,6.75
2023-02-23T22:07:32.606Z,6.97
2023-02-23T22:10:35.762Z,6.30
2023-02-23T22:13:38.536Z,7.65
2023-02-23T22:16:42.307Z,5.20
2023-02-23T22:19:45.280Z,8.18
2023-02-23T22:22:50.663Z,7.17
2023-02-23T22:25:54.101Z,6.22
2023-02-23T22:28:57.102Z,7.72
2023-02-23T22:31:59.979Z,7.15
2023-02-23T22:35:04.854Z,7.62
2023-02-23T22:38:07.502Z,6.60
2023-02-23T22:41:14.475Z,6.43
2023-02-23T22:44:22.820Z,7.87
2023-02-23T22:47:25.885Z,7.53
2023-02-23T22:50:28.972Z,7.72
2023-02-23T22:53:32.174Z,6.07
2023-02-23T22:56:36.658Z,8.10
2023-02-23T22:59:39.752Z,7.55
2023-02-23T23:02:42.741Z,6.95
2023-02-23T23:05:51.236Z,7.57
2023-02-23T23:08:56.576Z,7.87
2023-02-23T23:11:59.584Z,7.37
2023-02-23T23:15:05.434Z,8.15
2023-02-23T23:18:14.232Z,8.32
2023-02-23T23:21:22.134Z,7.90
2023-02-23T23:24:25.673Z,8.33
2023-02-23T23:27:28.368Z,6.57
2023-02-23T23:30:31.405Z,6.10
2023-02-23T23:33:34.774Z,7.62
2023-02-23T23:36:53.500Z,7.07
2023-02-23T23:39:59.479Z,7.37
2023-02-23T23:43:02.458Z,6.95
2023-02-23T23:46:06.497Z,7.50
2023-02-23T23:49:13.419Z,7.55
2023-02-23T23:52:18.004Z,8.25
2023-02-23T23:55:21.114Z,6.37
2023-02-23T23:58:26.947Z,7.87
